Weather reports worldwide

Advertisment
Aragues Del Puerto, Spain (8095): temperature & dewpoint: 06.12.2018 00:00:00 - 12.12.2018 00:00:00 (CET)Aragues Del Puerto, Spain (8095): wind speed & gusts: 06.12.2018 00:00:00 - 12.12.2018 00:00:00 (CET)Aragues Del Puerto, Spain (8095): wind direction: 06.12.2018 00:00:00 - 12.12.2018 00:00:00 (CET)Aragues Del Puerto, Spain (8095): visibility: 06.12.2018 00:00:00 - 12.12.2018 00:00:00 (CET)Aragues Del Puerto, Spain (8095): sunshine duration: 06.12.2018 00:00:00 - 12.12.2018 00:00:00 (CET)Aragues Del Puerto, Spain (8095): precipitation: 06.12.2018 00:00:00 - 12.12.2018 00:00:00 (CET)
Date & Time tt [°C] td [°C] ff [km/h] ff [kn] fx [km/h] fx [kn] dd vv [km] sd [min] rr [mm]
12.12.2018 00:00:00 4,1 -2,2 4 2 12 7 N 20 0 0,0
11.12.2018 23:00:00 4,7 -1,7 7 4 11 6 NNE 20 0 0,0
11.12.2018 22:00:00 4,6 -1,4 3 2 9 5 NNE 20 0 0,0
11.12.2018 21:00:00 4,6 -1,2 5 3 10 5 NNE 20 0 0,0
11.12.2018 20:00:00 5,0 -1,4 6 3 11 6 NNE 20 0 0,0
11.12.2018 19:00:00 5,9 -1,4 7 4 13 7 NNE 20 0 -
11.12.2018 18:00:00 7,3 -1,0 7 4 11 6 NNE 20 0 0,0
11.12.2018 17:00:00 9,3 -0,7 1 1 12 6 E 20 43 0,0
11.12.2018 16:00:00 11,6 -2,0 5 3 14 8 S 20 60 0,0
11.12.2018 15:00:00 12,4 -3,0 9 5 14 8 S 20 60 0,0
11.12.2018 14:00:00 11,7 -2,2 7 4 10 6 S 20 60 0,0
11.12.2018 13:00:00 10,1 -1,2 3 2 9 5 SSE 20 60 -
11.12.2018 12:00:00 8,9 -1,2 2 1 6 4 E 20 60 0,0
11.12.2018 11:00:00 6,3 -1,0 2 1 4 2 E 20 60 0,0
11.12.2018 10:00:00 5,1 -2,7 1 1 6 3 SSE 20 43 0,0
11.12.2018 09:00:00 3,0 -4,8 1 1 5 3 ENE 20 0 0,0
11.12.2018 08:00:00 3,2 -5,1 1 1 6 4 NW 20 0 0,0
11.12.2018 07:00:00 3,4 -5,7 1 1 4 2 WSW 20 0 -
11.12.2018 06:00:00 2,8 -5,7 2 1 7 4 SW 20 0 0,0
11.12.2018 05:00:00 2,6 -6,0 1 1 6 3 NE 20 0 0,0
11.12.2018 04:00:00 2,5 -6,0 2 1 5 3 WNW 20 0 0,0
11.12.2018 03:00:00 2,2 -5,7 2 1 4 2 NNE 20 0 0,0
11.12.2018 02:00:00 2,7 -5,4 2 1 6 3 NNW 20 0 0,0
11.12.2018 01:00:00 2,6 -5,4 3 2 8 4 NNE 20 0 -
11.12.2018 00:00:00 2,8 -4,8 3 1 11 6 WNW 20 0 0,0
10.12.2018 23:00:00 4,0 -5,1 2 1 6 4 WNW 20 0 0,0
10.12.2018 22:00:00 3,5 -5,1 3 2 9 5 NNE 20 0 0,0
10.12.2018 21:00:00 4,4 -3,3 2 1 9 5 N 20 0 0,0
10.12.2018 20:00:00 4,7 -3,6 4 2 10 5 NE 20 0 0,0
10.12.2018 19:00:00 5,5 -2,7 3 1 14 8 WSW 20 0 -
10.12.2018 18:00:00 6,5 -1,4 5 3 11 6 N 20 0 0,0
10.12.2018 17:00:00 8,1 0,0 5 3 8 4 NNE 20 35 0,0
10.12.2018 16:00:00 8,6 0,6 2 1 12 7 N 20 17 0,0
10.12.2018 15:00:00 10,0 -0,3 7 4 16 9 S 20 56 0,0
10.12.2018 14:00:00 11,0 -0,3 11 6 14 8 S 20 60 0,0
10.12.2018 13:00:00 10,4 -1,4 9 5 13 7 SSE 20 60 -
10.12.2018 12:00:00 8,8 -0,7 6 3 10 6 S 20 60 0,0
10.12.2018 11:00:00 7,4 -0,5 3 2 18 10 SE 20 60 0,0
10.12.2018 10:00:00 4,8 -1,0 5 3 13 7 NNE 20 53 0,0
10.12.2018 09:00:00 1,4 -2,0 3 2 9 5 NNE 20 0 0,0
10.12.2018 08:00:00 1,6 -2,0 4 2 11 6 N 20 0 0,0
10.12.2018 07:00:00 1,9 -1,7 3 2 10 5 NNW 20 0 -
10.12.2018 06:00:00 2,2 -1,7 3 2 9 5 ESE 20 0 0,0
10.12.2018 05:00:00 2,9 -2,0 3 1 10 6 WSW 20 0 0,0
10.12.2018 04:00:00 3,1 -2,0 3 2 13 7 W 20 0 0,0
10.12.2018 03:00:00 4,7 -1,4 6 4 16 9 WSW 20 0 0,0
10.12.2018 02:00:00 4,9 -0,3 6 3 10 5 NNW 20 0 0,0
10.12.2018 01:00:00 4,8 -0,5 6 3 11 6 NNE 20 0 -
10.12.2018 00:00:00 4,7 -0,3 4 2 14 7 NW 20 0 0,0
09.12.2018 23:00:00 5,3 -0,3 5 3 11 6 E 20 0 0,0
09.12.2018 22:00:00 4,9 -0,5 4 2 11 6 NNW 20 0 0,0
09.12.2018 21:00:00 5,0 0,0 3 1 13 7 N 20 0 0,0
09.12.2018 20:00:00 6,4 -0,3 4 2 18 10 E 20 0 0,0
09.12.2018 19:00:00 7,1 -2,2 5 3 35 19 WNW 20 0 -
09.12.2018 18:00:00 9,5 -2,5 13 7 36 20 NW 20 0 0,0
09.12.2018 17:00:00 10,8 -2,0 6 3 35 19 N 20 43 0,0
09.12.2018 16:00:00 12,5 -3,0 13 7 42 23 NW 20 60 0,0
09.12.2018 15:00:00 11,9 0,4 17 9 39 21 W 20 60 0,0
09.12.2018 14:00:00 13,2 0,6 11 6 34 18 WNW 20 60 0,0
09.12.2018 13:00:00 13,3 0,0 13 7 39 21 W 20 60 -
09.12.2018 12:00:00 12,1 0,9 14 7 44 24 W 20 60 0,0
09.12.2018 11:00:00 11,4 0,4 15 8 38 20 W 20 60 0,0
09.12.2018 10:00:00 10,3 0,0 11 6 31 17 W 20 54 0,0
09.12.2018 09:00:00 8,1 0,9 17 9 34 18 WNW 20 0 0,0
09.12.2018 08:00:00 9,3 -0,3 15 8 29 16 W 20 0 0,0
09.12.2018 07:00:00 8,4 0,6 5 3 31 17 WSW 20 0 -
09.12.2018 06:00:00 8,3 2,3 13 7 31 17 W 20 0 0,0
09.12.2018 05:00:00 8,9 3,6 18 10 32 17 W 20 0 0,0
09.12.2018 04:00:00 10,1 4,3 16 9 31 17 W 20 0 0,0
09.12.2018 03:00:00 11,3 4,5 16 8 39 21 WNW 20 0 0,0
09.12.2018 02:00:00 12,6 3,8 12 6 35 19 NW 20 0 0,0
09.12.2018 01:00:00 11,1 4,3 16 9 30 16 WNW 20 0 -
09.12.2018 00:00:00 11,4 3,6 9 5 31 17 WNW 20 0 0,0
08.12.2018 23:00:00 7,9 1,3 5 3 17 9 NW 20 0 0,0
08.12.2018 22:00:00 6,8 1,7 7 4 21 12 SSW 20 0 0,0
08.12.2018 21:00:00 4,7 1,3 4 2 12 6 SE 20 0 0,0
08.12.2018 20:00:00 5,1 1,5 3 2 14 7 N 20 0 0,0
08.12.2018 19:00:00 5,7 1,3 5 3 13 7 N 20 0 -
08.12.2018 18:00:00 7,0 1,1 3 2 12 6 W 20 0 0,0
08.12.2018 17:00:00 8,8 1,5 5 3 16 8 WSW 20 43 0,0
08.12.2018 16:00:00 10,4 1,3 12 6 27 15 SW 20 60 0,0
08.12.2018 15:00:00 11,1 1,7 11 6 23 13 SW 20 60 0,0
08.12.2018 14:00:00 10,2 -0,7 12 6 22 12 SW 20 60 0,0
08.12.2018 13:00:00 10,0 -0,5 8 4 17 9 SW 20 60 -
08.12.2018 12:00:00 8,2 0,2 4 2 10 6 E 20 60 0,0
08.12.2018 11:00:00 7,2 0,6 3 2 11 6 E 20 60 0,0
08.12.2018 10:00:00 5,0 0,4 3 2 9 5 NNE 20 45 0,0
08.12.2018 09:00:00 2,6 -0,3 3 2 11 6 NW 20 0 0,0
08.12.2018 08:00:00 3,6 -0,5 5 3 12 6 N 20 0 0,0
08.12.2018 07:00:00 4,1 0,0 5 3 34 18 WNW 20 0 -
08.12.2018 06:00:00 4,5 -0,5 11 6 20 11 WNW 20 0 0,0
08.12.2018 05:00:00 3,5 0,0 5 3 11 6 NE 20 0 0,0
08.12.2018 04:00:00 4,4 0,4 5 3 21 11 N 20 0 0,0
08.12.2018 03:00:00 5,2 0,0 10 5 30 16 WNW 20 0 0,0
08.12.2018 02:00:00 5,7 1,5 13 7 39 21 W 20 0 0,0
08.12.2018 01:00:00 7,2 0,0 8 5 44 24 NW 20 0 -
08.12.2018 00:00:00 8,3 -0,7 11 6 31 17 W 20 0 0,0
07.12.2018 23:00:00 9,1 0,9 13 7 29 16 WNW 20 0 0,0
07.12.2018 22:00:00 9,2 3,4 15 8 28 15 W 20 0 0,0
07.12.2018 21:00:00 10,7 3,8 12 7 41 22 WNW 20 0 0,0
07.12.2018 20:00:00 11,7 2,9 8 5 51 28 NW 20 0 0,0
07.12.2018 19:00:00 12,1 3,0 12 6 52 28 NNW 20 0 -
07.12.2018 18:00:00 11,8 5,5 12 7 35 19 WNW 20 0 0,0
07.12.2018 17:00:00 14,2 5,0 9 5 34 18 WNW 20 14 0,0
07.12.2018 16:00:00 14,7 1,3 9 5 24 13 WNW 20 30 0,0
07.12.2018 15:00:00 16,0 -2,0 9 5 26 14 W 20 54 0,0
07.12.2018 14:00:00 14,5 0,6 10 5 24 13 SSW 20 60 0,0
07.12.2018 13:00:00 11,6 0,9 5 3 11 6 SSE 20 60 -
07.12.2018 12:00:00 8,2 -0,5 3 2 8 5 ENE 20 60 0,0
07.12.2018 11:00:00 6,1 -1,2 3 2 10 5 SE 20 60 0,0
07.12.2018 10:00:00 3,5 -1,7 2 1 10 5 N 20 57 0,0
07.12.2018 09:00:00 0,4 -2,5 2 1 7 4 S 20 0 0,0
07.12.2018 08:00:00 0,5 -2,0 4 2 7 4 WNW 20 0 0,0
07.12.2018 07:00:00 1,0 -1,2 3 2 11 6 W 20 0 -
07.12.2018 06:00:00 1,3 -1,2 3 2 10 6 W 20 0 0,0
07.12.2018 05:00:00 1,2 -1,0 3 1 16 9 WNW 20 0 0,0
07.12.2018 04:00:00 1,8 -0,7 2 1 14 8 NE 20 0 0,0
07.12.2018 03:00:00 2,0 -0,5 2 1 14 7 S 20 0 0,0
07.12.2018 02:00:00 2,4 0,2 7 4 15 8 NNE 20 0 0,0
07.12.2018 01:00:00 3,2 0,2 7 4 14 7 N 20 0 -
07.12.2018 00:00:00 3,3 0,0 4 2 11 6 N 20 0 0,0
06.12.2018 23:00:00 4,2 0,6 7 4 14 8 N 20 0 0,0
06.12.2018 22:00:00 4,0 0,9 3 2 8 4 NNE 20 0 0,0
06.12.2018 21:00:00 4,9 1,1 3 2 14 8 NNW 20 0 0,0
06.12.2018 20:00:00 6,2 1,5 6 3 14 8 NNE 20 0 0,0
06.12.2018 19:00:00 6,8 1,9 3 1 15 8 NNE 20 0 -
06.12.2018 18:00:00 8,6 2,5 4 2 9 5 NNE 20 0 0,0
06.12.2018 17:00:00 11,1 2,1 4 2 11 6 WNW 20 42 0,0
06.12.2018 16:00:00 13,6 2,5 9 5 22 12 SW 20 60 0,0
06.12.2018 15:00:00 14,4 2,3 12 6 22 12 SW 20 60 0,0
06.12.2018 14:00:00 15,3 2,9 8 4 19 10 SW 20 60 0,0
06.12.2018 13:00:00 15,1 3,2 6 3 13 7 SE 20 60 -
06.12.2018 12:00:00 14,3 4,6 6 3 10 6 SSE 20 60 0,0
06.12.2018 11:00:00 12,5 3,8 3 2 20 11 E 20 60 0,0
06.12.2018 10:00:00 10,1 3,2 4 2 18 10 ENE 20 57 0,0
06.12.2018 09:00:00 6,8 2,1 8 5 16 9 NNW 20 0 0,0
06.12.2018 08:00:00 6,8 1,9 4 2 11 6 N 20 0 0,0
06.12.2018 07:00:00 8,2 1,1 8 4 23 12 N 20 0 -
06.12.2018 06:00:00 9,4 2,7 10 5 23 12 N 20 0 0,0
06.12.2018 05:00:00 9,0 0,9 5 3 15 8 W 20 0 0,0
06.12.2018 04:00:00 8,7 4,1 5 3 14 7 NNE 20 0 0,0
06.12.2018 03:00:00 9,3 4,3 5 3 14 8 N 20 0 0,0
06.12.2018 02:00:00 8,5 3,4 4 2 13 7 NNW 20 0 0,0
06.12.2018 01:00:00 7,9 2,7 3 2 10 5 ENE 20 0 -
06.12.2018 00:00:00 8,3 1,1 4 2 9 5 NNE 20 0 0,0

tt = temperature
td = dewpoint
ff = wind speed
fx = gusts
dd = wind direction
vv = visibility
sd = sunshine duration
rr = precipitation

Next stations